createdAt,value
2019-03-15T00:02:10.705Z,3.10
2019-03-15T00:04:39.969Z,3.23
2019-03-15T00:07:07.661Z,4.43
2019-03-15T00:09:35.348Z,2.60
2019-03-15T00:12:03.097Z,3.03
2019-03-15T00:14:30.859Z,1.73
2019-03-15T00:16:58.628Z,2.17
2019-03-15T00:19:26.388Z,2.70
2019-03-15T00:22:07.460Z,2.50
2019-03-15T00:24:35.234Z,3.53
2019-03-15T00:27:02.995Z,3.00
2019-03-15T00:29:30.645Z,2.90
2019-03-15T00:31:58.420Z,3.13
2019-03-15T00:34:26.192Z,2.37
2019-03-15T00:36:54.064Z,3.03
2019-03-15T00:39:21.957Z,3.17
2019-03-15T00:41:49.909Z,5.23
2019-03-15T00:44:17.548Z,3.90
2019-03-15T00:46:45.325Z,3.73
2019-03-15T00:49:13.108Z,4.00
2019-03-15T00:51:40.856Z,3.10
2019-03-15T00:54:08.637Z,2.37
2019-03-15T00:56:36.809Z,4.37
2019-03-15T00:59:04.555Z,3.23
2019-03-15T01:01:32.233Z,3.90
2019-03-15T01:03:59.983Z,3.10
2019-03-15T01:06:27.661Z,3.77
2019-03-15T01:08:55.411Z,3.43
2019-03-15T01:11:23.084Z,3.20
2019-03-15T01:13:50.865Z,2.60
2019-03-15T01:16:18.621Z,3.57
2019-03-15T01:18:46.380Z,3.67
2019-03-15T01:21:14.167Z,3.80
2019-03-15T01:23:41.927Z,2.70
2019-03-15T01:26:09.824Z,3.03
2019-03-15T01:28:37.549Z,2.57
2019-03-15T01:31:05.195Z,1.93
2019-03-15T01:33:32.885Z,3.20
2019-03-15T01:36:00.761Z,1.97
2019-03-15T01:38:28.413Z,2.23
2019-03-15T01:40:56.180Z,3.63
2019-03-15T01:43:23.803Z,1.97
2019-03-15T01:45:52.120Z,2.40
2019-03-15T01:48:19.990Z,2.03
2019-03-15T01:50:47.860Z,2.33
2019-03-15T01:53:15.633Z,2.23
2019-03-15T01:55:43.405Z,2.80
2019-03-15T01:58:11.170Z,2.60
2019-03-15T02:00:39.030Z,2.10
2019-03-15T02:03:06.679Z,5.13
2019-03-15T02:05:34.459Z,1.93
2019-03-15T02:08:02.327Z,2.67
2019-03-15T02:10:30.190Z,2.33
2019-03-15T02:12:58.067Z,3.13
2019-03-15T02:15:25.813Z,3.50
2019-03-15T02:17:53.597Z,3.03
2019-03-15T02:20:21.722Z,4.23
2019-03-15T02:22:49.542Z,2.80
2019-03-15T02:25:17.296Z,3.13
2019-03-15T02:27:45.017Z,5.00
2019-03-15T02:30:12.725Z,3.17
2019-03-15T02:32:40.492Z,5.37
2019-03-15T02:35:08.258Z,2.77
2019-03-15T02:37:36.018Z,2.77
2019-03-15T02:40:04.821Z,3.47
2019-03-15T02:42:32.688Z,3.13
2019-03-15T02:45:00.556Z,6.20
2019-03-15T02:47:28.325Z,4.13
2019-03-15T02:49:56.036Z,4.30
2019-03-15T02:52:23.854Z,3.83
2019-03-15T02:54:51.723Z,3.93
2019-03-15T02:57:19.480Z,3.87
2019-03-15T02:59:47.572Z,3.40
2019-03-15T03:02:15.420Z,3.00
2019-03-15T03:04:43.053Z,3.37
2019-03-15T03:07:10.864Z,3.60
2019-03-15T03:09:38.625Z,4.33
2019-03-15T03:12:06.386Z,2.70
2019-03-15T03:14:34.255Z,2.70
2019-03-15T03:17:02.132Z,5.13
2019-03-15T03:19:29.882Z,2.40
2019-03-15T03:21:57.622Z,2.17
2019-03-15T03:24:25.301Z,3.00
2019-03-15T03:26:53.083Z,3.07
2019-03-15T03:29:20.849Z,2.40
2019-03-15T03:31:48.513Z,3.40
2019-03-15T03:34:16.293Z,6.50
2019-03-15T03:36:44.058Z,2.70
2019-03-15T03:39:11.918Z,3.13
2019-03-15T03:41:39.890Z,4.13
2019-03-15T03:44:07.548Z,2.90
2019-03-15T03:46:35.305Z,3.33
2019-03-15T03:49:03.181Z,4.43
2019-03-15T03:51:30.940Z,4.80
2019-03-15T03:53:58.707Z,5.60
2019-03-15T03:56:26.488Z,4.60
2019-03-15T03:58:54.354Z,6.10
2019-03-15T04:01:22.098Z,3.93
2019-03-15T04:03:49.962Z,4.77
2019-03-15T04:06:17.741Z,3.97
2019-03-15T04:08:45.621Z,4.70
2019-03-15T04:11:13.489Z,4.07
2019-03-15T04:13:41.258Z,4.07
2019-03-15T04:16:08.999Z,4.03
2019-03-15T04:18:36.994Z,4.77
2019-03-15T04:21:05.064Z,5.63
2019-03-15T04:23:32.824Z,6.30
2019-03-15T04:26:01.212Z,6.33
2019-03-15T04:28:28.969Z,5.93
2019-03-15T04:30:56.845Z,6.73
2019-03-15T04:33:24.470Z,5.97
2019-03-15T04:35:52.372Z,6.13
2019-03-15T04:38:20.246Z,5.83
2019-03-15T04:40:48.019Z,6.83
2019-03-15T04:43:15.773Z,6.70
2019-03-15T04:45:43.519Z,6.90
2019-03-15T04:48:11.304Z,5.33
2019-03-15T04:50:38.961Z,4.43
2019-03-15T04:53:06.643Z,6.17
2019-03-15T04:55:34.279Z,5.57
2019-03-15T04:58:02.876Z,6.13
2019-03-15T05:00:30.657Z,3.27
2019-03-15T05:02:58.411Z,4.00
2019-03-15T05:05:26.173Z,5.30
2019-03-15T05:07:53.941Z,7.90
2019-03-15T05:10:21.592Z,5.40
2019-03-15T05:12:50.279Z,4.17
2019-03-15T05:15:18.163Z,4.13
2019-03-15T05:17:45.928Z,3.77
2019-03-15T05:20:13.583Z,7.87
2019-03-15T05:22:41.241Z,3.83
2019-03-15T05:25:09.003Z,5.37
2019-03-15T05:27:36.785Z,4.57
2019-03-15T05:30:05.681Z,5.87
2019-03-15T05:32:34.789Z,6.83
2019-03-15T05:35:02.540Z,6.57
2019-03-15T05:37:30.418Z,6.57
2019-03-15T05:39:58.159Z,6.80
2019-03-15T05:42:25.946Z,6.80
2019-03-15T05:44:53.709Z,5.43
2019-03-15T05:47:21.468Z,7.67
2019-03-15T05:49:49.147Z,10.27
2019-03-15T05:52:16.904Z,6.30
2019-03-15T05:54:44.675Z,7.13
2019-03-15T05:57:12.432Z,7.87
2019-03-15T05:59:40.084Z,6.37
2019-03-15T06:02:07.865Z,7.73
2019-03-15T06:04:35.632Z,7.27
2019-03-15T06:07:03.321Z,8.53
2019-03-15T06:09:30.999Z,13.57
2019-03-15T06:11:58.664Z,9.83
2019-03-15T06:14:26.389Z,15.17
2019-03-15T06:16:54.161Z,17.00
2019-03-15T06:19:21.919Z,26.83
2019-03-15T06:21:49.693Z,9.03
2019-03-15T06:24:17.452Z,21.27
2019-03-15T06:26:45.084Z,20.07
2019-03-15T06:29:12.880Z,16.30
2019-03-15T06:31:41.648Z,22.23
2019-03-15T06:34:09.255Z,13.27
2019-03-15T06:36:37.110Z,22.03
2019-03-15T06:39:05.741Z,15.47
2019-03-15T06:41:33.465Z,22.87
2019-03-15T06:44:01.324Z,9.70
2019-03-15T06:46:29.296Z,17.03
2019-03-15T06:48:57.057Z,12.33
2019-03-15T06:51:24.822Z,11.63
2019-03-15T06:53:52.690Z,11.13
2019-03-15T06:56:20.461Z,8.63
2019-03-15T06:58:48.233Z,11.20
2019-03-15T07:01:15.930Z,11.97
2019-03-15T07:03:43.659Z,9.67
2019-03-15T07:06:11.403Z,28.00
2019-03-15T07:08:39.872Z,17.03
2019-03-15T07:11:07.762Z,13.53
2019-03-15T07:13:35.542Z,9.20
2019-03-15T07:16:03.292Z,9.10
2019-03-15T07:18:31.061Z,13.40
2019-03-15T07:20:58.934Z,9.43
2019-03-15T07:23:26.701Z,9.70
2019-03-15T07:25:54.474Z,8.33
2019-03-15T07:28:22.232Z,17.63
2019-03-15T07:30:50.006Z,16.97
2019-03-15T07:33:17.755Z,9.90
2019-03-15T07:35:45.421Z,11.00
2019-03-15T07:38:13.088Z,10.13
2019-03-15T07:40:40.848Z,6.80
2019-03-15T07:43:08.731Z,16.37
2019-03-15T07:45:36.492Z,11.60
2019-03-15T07:48:04.176Z,8.70
2019-03-15T07:50:31.921Z,9.40
2019-03-15T07:52:59.788Z,8.17
2019-03-15T07:55:27.435Z,12.27
2019-03-15T07:57:55.229Z,11.43
2019-03-15T08:00:22.847Z,9.73
2019-03-15T08:02:50.650Z,11.57
2019-03-15T08:05:18.421Z,9.13
2019-03-15T08:07:46.286Z,10.13
2019-03-15T08:10:14.161Z,13.87
2019-03-15T08:12:41.920Z,13.43
2019-03-15T08:15:11.115Z,8.80
2019-03-15T08:17:38.875Z,8.93
2019-03-15T08:20:10.653Z,7.83
2019-03-15T08:22:38.391Z,7.23
2019-03-15T08:25:07.304Z,9.10
2019-03-15T08:27:35.025Z,9.53
2019-03-15T08:30:02.729Z,11.50
2019-03-15T08:32:30.495Z,12.60
2019-03-15T08:34:58.253Z,8.07
2019-03-15T08:37:26.128Z,11.80
2019-03-15T08:39:53.900Z,12.13
2019-03-15T08:42:21.657Z,7.67
2019-03-15T08:44:49.309Z,11.60
2019-03-15T08:47:17.196Z,12.87
2019-03-15T08:49:44.952Z,8.10
2019-03-15T08:52:12.725Z,7.00
2019-03-15T08:54:40.433Z,8.20
2019-03-15T08:57:08.261Z,9.93
2019-03-15T08:59:36.021Z,8.77
2019-03-15T09:02:03.780Z,7.30
2019-03-15T09:04:31.544Z,8.13
2019-03-15T09:06:59.328Z,4.97
2019-03-15T09:09:27.085Z,6.77
2019-03-15T09:11:54.814Z,8.50
2019-03-15T09:14:22.433Z,9.67
2019-03-15T09:16:50.175Z,8.67
2019-03-15T09:19:17.953Z,5.17
2019-03-15T09:21:45.713Z,11.57
2019-03-15T09:24:13.583Z,10.97
2019-03-15T09:26:41.340Z,8.07
2019-03-15T09:29:09.179Z,10.43
2019-03-15T09:31:46.919Z,6.87
2019-03-15T09:34:06.271Z,6.90
2019-03-15T09:36:34.175Z,10.27
2019-03-15T09:39:01.910Z,8.90
2019-03-15T09:41:33.392Z,8.27
2019-03-15T09:43:59.094Z,8.17
2019-03-15T09:46:26.959Z,6.30
2019-03-15T09:48:54.639Z,7.23
2019-03-15T09:51:22.382Z,6.40
2019-03-15T09:53:50.173Z,6.30
2019-03-15T09:56:17.922Z,7.33
2019-03-15T09:58:45.694Z,9.03
2019-03-15T10:01:13.847Z,6.17
2019-03-15T10:03:41.717Z,6.00
2019-03-15T10:06:14.760Z,5.93
2019-03-15T10:08:38.841Z,10.63
2019-03-15T10:11:06.552Z,7.77
2019-03-15T10:13:34.316Z,6.77
2019-03-15T10:16:02.195Z,6.40
2019-03-15T10:18:29.839Z,7.63
2019-03-15T10:20:57.608Z,8.00
2019-03-15T10:23:25.352Z,6.77
2019-03-15T10:25:53.047Z,8.57
2019-03-15T10:28:20.821Z,7.43
2019-03-15T10:30:48.691Z,12.43
2019-03-15T10:33:16.535Z,5.90
2019-03-15T10:35:44.314Z,8.83
2019-03-15T10:38:11.988Z,11.73
2019-03-15T10:40:41.129Z,8.97
2019-03-15T10:43:09.055Z,10.37
2019-03-15T10:45:36.753Z,9.97
2019-03-15T10:48:07.828Z,9.87
2019-03-15T10:50:33.827Z,8.23
2019-03-15T10:53:01.655Z,7.93
2019-03-15T10:55:29.412Z,9.77
2019-03-15T10:57:57.075Z,8.77
2019-03-15T11:00:24.943Z,10.30
2019-03-15T11:02:53.148Z,11.50
2019-03-15T11:05:20.887Z,7.97
2019-03-15T11:07:48.644Z,9.87
2019-03-15T11:10:16.305Z,7.27
2019-03-15T11:12:44.173Z,10.57
2019-03-15T11:15:12.574Z,8.37
2019-03-15T11:17:40.218Z,9.53
2019-03-15T11:20:09.016Z,11.47
2019-03-15T11:22:36.798Z,10.07
2019-03-15T11:25:05.252Z,14.60
2019-03-15T11:27:33.029Z,16.27
2019-03-15T11:30:00.910Z,11.93
2019-03-15T11:32:28.777Z,8.00
2019-03-15T11:34:56.533Z,7.87
2019-03-15T11:37:24.304Z,11.63
2019-03-15T11:39:51.901Z,5.20
2019-03-15T11:42:20.144Z,8.47
2019-03-15T11:44:47.904Z,10.37
2019-03-15T11:47:15.719Z,8.87
2019-03-15T11:49:43.449Z,9.80
2019-03-15T11:52:11.135Z,8.30
2019-03-15T11:54:38.865Z,9.67
2019-03-15T11:57:06.637Z,10.17
2019-03-15T11:59:36.215Z,8.80
2019-03-15T12:02:04.529Z,10.97
2019-03-15T12:04:32.507Z,10.30
2019-03-15T12:07:00.527Z,9.88
2019-03-15T12:09:28.338Z,11.37
2019-03-15T12:11:56.304Z,10.77
2019-03-15T12:14:23.951Z,11.13
2019-03-15T12:16:51.617Z,6.57
2019-03-15T12:19:19.504Z,9.53
2019-03-15T12:21:47.151Z,10.03
2019-03-15T12:24:15.140Z,10.57
2019-03-15T12:26:43.200Z,7.10
2019-03-15T12:29:10.852Z,8.33
2019-03-15T12:31:38.515Z,8.77
2019-03-15T12:34:06.305Z,8.63
2019-03-15T12:36:33.931Z,7.70
2019-03-15T12:39:02.208Z,11.08
2019-03-15T12:41:29.966Z,11.47
2019-03-15T12:43:57.655Z,8.73
2019-03-15T12:46:25.324Z,7.70
2019-03-15T12:48:53.799Z,11.27
2019-03-15T12:51:31.619Z,5.10
2019-03-15T12:53:51.100Z,10.97
2019-03-15T12:56:18.961Z,8.73
2019-03-15T12:58:46.826Z,8.67
2019-03-15T13:01:14.698Z,7.73
2019-03-15T13:03:42.457Z,9.90
2019-03-15T13:06:10.235Z,8.87
2019-03-15T13:08:38.101Z,11.07
2019-03-15T13:11:05.967Z,9.03
2019-03-15T13:13:33.725Z,12.53
2019-03-15T13:16:01.503Z,8.50
2019-03-15T13:18:29.156Z,14.00
2019-03-15T13:20:57.046Z,11.80
2019-03-15T13:23:24.790Z,6.77
2019-03-15T13:25:54.558Z,11.60
2019-03-15T13:28:22.069Z,55.70
2019-03-15T13:30:49.816Z,13.83
2019-03-15T13:33:20.790Z,5.93
2019-03-15T13:35:46.908Z,5.53
2019-03-15T13:38:14.625Z,10.43
2019-03-15T13:40:42.264Z,17.77
2019-03-15T13:43:10.196Z,26.20
2019-03-15T13:45:39.054Z,6.33
2019-03-15T13:48:06.858Z,20.83
2019-03-15T13:50:34.503Z,7.97
2019-03-15T13:53:02.401Z,21.67
2019-03-15T13:55:30.081Z,7.63
2019-03-15T13:57:57.810Z,15.30
2019-03-15T14:00:25.478Z,10.10
2019-03-15T14:02:53.243Z,27.23
2019-03-15T14:05:20.996Z,15.13
2019-03-15T14:07:48.786Z,46.53
2019-03-15T14:10:16.870Z,12.33
2019-03-15T14:12:44.462Z,9.70
2019-03-15T14:15:13.816Z,10.83
2019-03-15T14:17:41.583Z,8.00
2019-03-15T14:20:10.790Z,17.93
2019-03-15T14:22:38.540Z,58.07
2019-03-15T14:25:10.516Z,18.30
2019-03-15T14:27:38.269Z,18.30
2019-03-15T14:30:07.788Z,9.93
2019-03-15T14:32:35.544Z,14.23
2019-03-15T14:35:03.230Z,9.90
2019-03-15T14:37:31.120Z,7.47
2019-03-15T14:39:59.052Z,10.00
2019-03-15T14:42:27.070Z,12.70
2019-03-15T14:44:55.212Z,23.43
2019-03-15T14:47:22.827Z,25.27
2019-03-15T14:49:50.507Z,16.47
2019-03-15T14:52:18.186Z,32.47
2019-03-15T14:54:46.062Z,12.90
2019-03-15T14:57:13.708Z,23.87
2019-03-15T14:59:41.484Z,13.27
2019-03-15T15:02:09.175Z,287.30
2019-03-15T15:04:36.933Z,44.60
2019-03-15T15:07:04.563Z,67.40
2019-03-15T15:09:32.286Z,39.77
2019-03-15T15:11:59.992Z,15.70
2019-03-15T15:14:27.985Z,19.50
2019-03-15T15:16:55.857Z,48.20
2019-03-15T15:19:23.619Z,334.70
2019-03-15T15:21:52.923Z,95.13
2019-03-15T15:24:21.096Z,13.00
2019-03-15T15:26:48.852Z,67.23
2019-03-15T15:29:16.729Z,133.93
2019-03-15T15:31:44.673Z,39.83
2019-03-15T15:34:12.460Z,12.00
2019-03-15T15:36:40.215Z,8.53
2019-03-15T15:39:07.877Z,12.20
2019-03-15T15:41:36.052Z,8.57
2019-03-15T15:44:03.844Z,11.90
2019-03-15T15:46:31.701Z,13.67
2019-03-15T15:48:59.819Z,44.20
2019-03-15T15:51:27.554Z,29.53
2019-03-15T15:53:55.319Z,70.80
2019-03-15T15:56:23.192Z,90.27
2019-03-15T15:58:50.812Z,211.97
2019-03-15T16:01:18.604Z,24.90
2019-03-15T16:03:46.263Z,41.93
2019-03-15T16:06:14.034Z,54.57
2019-03-15T16:08:41.910Z,132.67
2019-03-15T16:11:09.551Z,85.60
2019-03-15T16:13:37.329Z,178.67
2019-03-15T16:16:05.057Z,71.47
2019-03-15T16:18:32.762Z,252.37
2019-03-15T16:21:00.423Z,230.07
2019-03-15T16:23:30.370Z,75.60
2019-03-15T16:25:57.479Z,562.03
2019-03-15T16:28:31.595Z,632.43
2019-03-15T16:30:54.769Z,300.43
2019-03-15T16:33:22.465Z,292.97
2019-03-15T16:35:50.624Z,211.67
2019-03-15T16:38:18.309Z,399.47
2019-03-15T16:40:46.127Z,469.50
2019-03-15T16:43:14.007Z,133.53
2019-03-15T16:45:41.871Z,174.53
2019-03-15T16:48:09.540Z,165.63
2019-03-15T16:50:37.300Z,68.40
2019-03-15T16:53:05.169Z,74.37
2019-03-15T16:55:33.037Z,103.83
2019-03-15T16:58:00.911Z,53.53
2019-03-15T17:00:28.670Z,59.50
2019-03-15T17:02:56.303Z,22.50
2019-03-15T17:05:24.000Z,21.10
2019-03-15T17:07:51.761Z,33.87
2019-03-15T17:10:19.661Z,22.80
2019-03-15T17:12:47.509Z,42.07
2019-03-15T17:15:16.696Z,7.40
2019-03-15T17:17:44.347Z,23.43
2019-03-15T17:20:12.335Z,30.97
2019-03-15T17:22:39.997Z,22.57
2019-03-15T17:25:09.206Z,44.47
2019-03-15T17:27:36.908Z,12.03
2019-03-15T17:30:06.126Z,57.60
2019-03-15T17:32:34.036Z,46.43
2019-03-15T17:35:01.709Z,56.63
2019-03-15T17:37:29.365Z,19.53
2019-03-15T17:39:57.234Z,13.43
2019-03-15T17:42:24.989Z,9.33
2019-03-15T17:44:52.867Z,10.27
2019-03-15T17:47:20.620Z,13.43
2019-03-15T17:49:48.500Z,26.43
2019-03-15T17:52:16.269Z,15.20
2019-03-15T17:54:44.020Z,18.37
2019-03-15T17:57:12.106Z,17.27
2019-03-15T17:59:39.751Z,15.23
2019-03-15T18:02:07.633Z,11.17
2019-03-15T18:04:35.325Z,11.97
2019-03-15T18:07:03.559Z,21.30
2019-03-15T18:09:31.354Z,11.67
2019-03-15T18:11:59.112Z,21.93
2019-03-15T18:14:27.081Z,36.47
2019-03-15T18:16:54.740Z,18.83
2019-03-15T18:19:22.388Z,31.60
2019-03-15T18:21:50.174Z,31.60
2019-03-15T18:24:17.940Z,33.20
2019-03-15T18:26:45.584Z,16.47
2019-03-15T18:29:25.620Z,31.50
2019-03-15T18:31:42.764Z,22.27
2019-03-15T18:34:10.643Z,47.13
2019-03-15T18:36:38.395Z,33.10
2019-03-15T18:39:06.988Z,61.77
2019-03-15T18:41:34.679Z,52.60
2019-03-15T18:44:02.426Z,42.00
2019-03-15T18:46:30.290Z,37.80
2019-03-15T18:48:58.159Z,34.83
2019-03-15T18:51:26.437Z,29.63
2019-03-15T18:53:54.205Z,20.23
2019-03-15T18:56:21.969Z,21.80
2019-03-15T18:58:49.890Z,16.80
2019-03-15T19:01:17.603Z,26.40
2019-03-15T19:03:47.321Z,33.00
2019-03-15T19:06:15.186Z,36.43
2019-03-15T19:08:42.949Z,33.93
2019-03-15T19:11:10.721Z,44.87
2019-03-15T19:13:38.464Z,52.20
2019-03-15T19:16:19.277Z,18.60
2019-03-15T19:18:35.766Z,115.80
2019-03-15T19:21:03.533Z,30.03
2019-03-15T19:23:31.454Z,223.47
2019-03-15T19:25:59.166Z,50.73
2019-03-15T19:28:27.025Z,48.27
2019-03-15T19:30:54.987Z,39.97
2019-03-15T19:33:22.653Z,80.77
2019-03-15T19:35:50.295Z,67.90
2019-03-15T19:38:18.387Z,39.83
2019-03-15T19:40:46.039Z,48.23
2019-03-15T19:43:13.919Z,72.27
2019-03-15T19:45:41.692Z,60.00
2019-03-15T19:48:09.763Z,11.00
2019-03-15T19:50:37.420Z,18.30
2019-03-15T19:53:05.399Z,44.40
2019-03-15T19:55:33.259Z,142.33
2019-03-15T19:58:01.020Z,48.80
2019-03-15T20:00:28.730Z,129.77
2019-03-15T20:02:56.460Z,243.87
2019-03-15T20:05:24.426Z,155.33
2019-03-15T20:07:52.422Z,134.17
2019-03-15T20:10:20.491Z,102.33
2019-03-15T20:12:48.244Z,65.17
2019-03-15T20:15:16.628Z,67.53
2019-03-15T20:17:44.368Z,55.80
2019-03-15T20:20:15.645Z,42.37
2019-03-15T20:22:43.488Z,155.07
2019-03-15T20:25:12.914Z,86.30
2019-03-15T20:27:40.686Z,65.53
2019-03-15T20:30:21.027Z,46.37
2019-03-15T20:32:41.937Z,29.53
2019-03-15T20:35:09.631Z,36.83
2019-03-15T20:37:37.468Z,20.93
2019-03-15T20:40:07.393Z,30.77
2019-03-15T20:42:35.248Z,25.80
2019-03-15T20:45:03.121Z,22.70
2019-03-15T20:47:30.764Z,30.40
2019-03-15T20:49:58.448Z,33.63
2019-03-15T20:52:26.321Z,19.93
2019-03-15T20:54:54.082Z,22.83
2019-03-15T20:57:21.951Z,16.40
2019-03-15T20:59:49.725Z,14.43
2019-03-15T21:02:17.364Z,9.63
2019-03-15T21:04:45.154Z,20.93
2019-03-15T21:07:13.435Z,10.50
2019-03-15T21:09:41.296Z,224.53
2019-03-15T21:12:08.994Z,12.37
2019-03-15T21:14:36.720Z,28.10
2019-03-15T21:17:04.662Z,11.30
2019-03-15T21:19:32.465Z,9.93
2019-03-15T21:22:00.125Z,10.40
2019-03-15T21:24:27.890Z,10.57
2019-03-15T21:26:57.392Z,8.33
2019-03-15T21:29:25.020Z,10.90
2019-03-15T21:31:52.709Z,10.40
2019-03-15T21:34:20.595Z,13.50
2019-03-15T21:36:48.240Z,10.63
2019-03-15T21:39:15.909Z,10.83
2019-03-15T21:41:43.584Z,11.77
2019-03-15T21:44:11.365Z,8.27
2019-03-15T21:46:39.347Z,11.43
2019-03-15T21:49:07.185Z,11.30
2019-03-15T21:51:34.880Z,11.87
2019-03-15T21:54:02.610Z,13.07
2019-03-15T21:56:30.363Z,12.13
2019-03-15T21:58:58.032Z,14.43
2019-03-15T22:01:25.816Z,10.20
2019-03-15T22:03:53.682Z,12.17
2019-03-15T22:06:21.441Z,10.23
2019-03-15T22:08:49.205Z,9.87
2019-03-15T22:11:21.354Z,12.43
2019-03-15T22:13:46.363Z,13.20
2019-03-15T22:16:14.180Z,10.50
2019-03-15T22:18:41.911Z,12.17
2019-03-15T22:21:09.889Z,12.83
2019-03-15T22:23:37.773Z,19.30
2019-03-15T22:26:05.829Z,12.23
2019-03-15T22:28:33.593Z,14.67
2019-03-15T22:31:01.464Z,13.13
2019-03-15T22:33:30.696Z,12.70
2019-03-15T22:35:58.494Z,11.30
2019-03-15T22:38:26.871Z,10.70
2019-03-15T22:40:54.689Z,12.10
2019-03-15T22:43:22.443Z,11.87
2019-03-15T22:45:50.066Z,11.63
2019-03-15T22:48:18.379Z,10.63
2019-03-15T22:50:46.012Z,9.90
2019-03-15T22:53:13.647Z,8.73
2019-03-15T22:55:41.334Z,10.23
2019-03-15T22:58:09.163Z,10.97
2019-03-15T23:00:38.340Z,11.40
2019-03-15T23:03:06.209Z,11.33
2019-03-15T23:05:34.173Z,9.33
2019-03-15T23:08:01.944Z,11.70
2019-03-15T23:10:29.808Z,11.70
2019-03-15T23:12:57.678Z,7.90
2019-03-15T23:15:25.547Z,10.10
2019-03-15T23:17:53.520Z,9.40
2019-03-15T23:20:21.277Z,17.73
2019-03-15T23:22:49.048Z,12.83
2019-03-15T23:25:16.825Z,10.10
2019-03-15T23:27:44.476Z,6.40
2019-03-15T23:30:13.164Z,6.87
2019-03-15T23:32:41.022Z,6.10
2019-03-15T23:35:09.008Z,8.50
2019-03-15T23:37:39.657Z,6.63
2019-03-15T23:40:08.617Z,6.63
2019-03-15T23:42:37.018Z,6.00
2019-03-15T23:45:05.807Z,5.27
2019-03-15T23:47:33.675Z,5.57
2019-03-15T23:50:01.370Z,6.57
2019-03-15T23:52:29.100Z,5.17
2019-03-15T23:54:56.972Z,6.33
2019-03-15T23:57:24.625Z,7.90
2019-03-15T23:59:52.500Z,10.03
